createdAt,value
2018-08-18T00:01:00.792Z,79.48
2018-08-18T00:03:28.331Z,79.41
2018-08-18T00:05:55.918Z,79.41
2018-08-18T00:08:23.511Z,79.30
2018-08-18T00:10:51.166Z,79.71
2018-08-18T00:13:18.815Z,79.11
2018-08-18T00:15:46.675Z,78.75
2018-08-18T00:18:14.223Z,79.11
2018-08-18T00:20:41.758Z,79.24
2018-08-18T00:23:09.634Z,80.09
2018-08-18T00:25:37.137Z,78.95
2018-08-18T00:28:10.383Z,79.44
2018-08-18T00:30:37.935Z,78.83
2018-08-18T00:33:05.526Z,78.49
2018-08-18T00:35:33.113Z,78.32
2018-08-18T00:38:00.655Z,79.50
2018-08-18T00:40:28.178Z,79.63
2018-08-18T00:42:55.721Z,79.97
2018-08-18T00:45:23.323Z,79.66
2018-08-18T00:47:50.918Z,79.56
2018-08-18T00:50:56.250Z,79.63
2018-08-18T00:53:23.778Z,78.86
2018-08-18T00:55:51.304Z,79.22
2018-08-18T00:58:26.286Z,80.30
2018-08-18T01:01:00.390Z,80.27
2018-08-18T01:03:27.938Z,80.75
2018-08-18T01:06:06.373Z,80.54
2018-08-18T01:08:33.969Z,80.45
2018-08-18T01:11:02.033Z,79.79
2018-08-18T01:13:29.482Z,79.69
2018-08-18T01:15:57.029Z,80.31
2018-08-18T01:18:24.703Z,80.36
2018-08-18T01:20:52.230Z,79.66
2018-08-18T01:23:19.754Z,80.18
2018-08-18T01:25:47.298Z,80.71
2018-08-18T01:28:14.815Z,80.36
2018-08-18T01:30:42.401Z,80.47
2018-08-18T01:33:10.298Z,79.91
2018-08-18T01:35:37.844Z,80.09
2018-08-18T01:38:05.355Z,80.20
2018-08-18T01:40:33.043Z,79.83
2018-08-18T01:43:01.356Z,79.66
2018-08-18T01:45:28.876Z,79.40
2018-08-18T01:47:56.407Z,79.25
2018-08-18T01:50:23.935Z,79.34
2018-08-18T01:52:51.798Z,78.98
2018-08-18T01:55:19.315Z,79.37
2018-08-18T01:57:47.619Z,78.65
2018-08-18T02:00:20.882Z,79.57
2018-08-18T02:02:48.419Z,79.47
2018-08-18T02:05:17.279Z,80.35
2018-08-18T02:07:44.878Z,80.10
2018-08-18T02:10:12.473Z,79.63
2018-08-18T02:12:44.558Z,80.50
2018-08-18T02:15:12.108Z,80.77
2018-08-18T02:17:39.934Z,80.49
2018-08-18T02:20:08.237Z,80.01
2018-08-18T02:22:36.731Z,80.03
2018-08-18T02:25:04.714Z,79.94
2018-08-18T02:27:35.408Z,79.45
2018-08-18T02:30:20.503Z,79.72
2018-08-18T02:32:48.064Z,80.43
2018-08-18T02:35:16.322Z,80.16
2018-08-18T02:37:43.889Z,79.36
2018-08-18T02:40:12.205Z,80.55
2018-08-18T02:42:39.943Z,80.72
2018-08-18T02:45:08.174Z,80.57
2018-08-18T02:47:35.718Z,80.56
2018-08-18T02:50:03.814Z,80.02
2018-08-18T02:52:32.097Z,79.86
2018-08-18T02:55:00.782Z,79.13
2018-08-18T02:57:30.615Z,79.25
2018-08-18T02:59:59.501Z,78.84
2018-08-18T03:02:27.039Z,79.34
2018-08-18T03:04:54.947Z,77.93
2018-08-18T03:07:22.893Z,78.11
2018-08-18T03:09:50.459Z,78.36
2018-08-18T03:12:18.062Z,78.70
2018-08-18T03:14:45.645Z,78.72
2018-08-18T03:17:13.174Z,79.65
2018-08-18T03:19:42.243Z,78.17
2018-08-18T03:22:10.107Z,78.07
2018-08-18T03:24:37.606Z,78.19
2018-08-18T03:27:05.186Z,78.37
2018-08-18T03:30:03.752Z,78.23
2018-08-18T03:32:31.281Z,79.02
2018-08-18T03:34:58.805Z,78.89
2018-08-18T03:37:27.614Z,79.20
2018-08-18T03:39:55.562Z,78.81
2018-08-18T03:42:27.933Z,78.39
2018-08-18T03:44:56.023Z,78.53
2018-08-18T03:47:23.569Z,78.08
2018-08-18T03:49:51.096Z,77.27
2018-08-18T03:52:18.716Z,77.76
2018-08-18T03:54:46.265Z,78.15
2018-08-18T03:57:13.774Z,77.69
2018-08-18T03:59:41.484Z,77.91
2018-08-18T04:02:09.717Z,78.14
2018-08-18T04:04:37.513Z,78.52
2018-08-18T04:07:06.790Z,77.87
2018-08-18T04:09:36.209Z,78.16
2018-08-18T04:12:04.991Z,76.92
2018-08-18T04:14:42.898Z,78.25
2018-08-18T04:17:16.032Z,78.64
2018-08-18T04:19:44.806Z,78.94
2018-08-18T04:22:12.345Z,79.38
2018-08-18T04:24:45.735Z,78.61
2018-08-18T04:27:18.651Z,78.44
2018-08-18T04:29:46.451Z,78.27
2018-08-18T04:32:14.006Z,77.95
2018-08-18T04:34:41.519Z,77.76
2018-08-18T04:37:09.063Z,78.59
2018-08-18T04:39:36.595Z,78.62
2018-08-18T04:42:04.762Z,78.72
2018-08-18T04:44:32.312Z,78.54
2018-08-18T04:46:59.885Z,78.96
2018-08-18T04:49:27.427Z,78.93
2018-08-18T04:51:54.962Z,78.66
2018-08-18T04:54:22.481Z,78.68
2018-08-18T04:56:50.118Z,78.95
2018-08-18T04:59:17.676Z,79.04
2018-08-18T05:01:45.194Z,78.82
2018-08-18T05:04:13.064Z,78.50
2018-08-18T05:06:41.848Z,79.42
2018-08-18T05:09:10.614Z,79.37
2018-08-18T05:11:38.506Z,79.39
2018-08-18T05:14:06.060Z,79.24
2018-08-18T05:16:33.612Z,79.40
2018-08-18T05:19:01.247Z,79.25
2018-08-18T05:21:28.741Z,79.12
2018-08-18T05:23:56.418Z,79.27
2018-08-18T05:26:23.969Z,79.14
2018-08-18T05:28:51.485Z,80.00
2018-08-18T05:31:20.539Z,79.65
2018-08-18T05:33:48.534Z,79.73
2018-08-18T05:36:16.102Z,79.25
2018-08-18T05:38:43.689Z,79.41
2018-08-18T05:41:11.729Z,78.67
2018-08-18T05:43:39.335Z,79.09
2018-08-18T05:46:06.940Z,78.63
2018-08-18T05:48:34.658Z,78.73
2018-08-18T05:51:02.451Z,78.47
2018-08-18T05:53:33.958Z,78.34
2018-08-18T05:56:02.282Z,77.96
2018-08-18T05:58:40.073Z,78.24
2018-08-18T06:01:17.839Z,77.78
2018-08-18T06:03:45.401Z,78.32
2018-08-18T06:06:12.963Z,78.08
2018-08-18T06:08:40.610Z,77.98
2018-08-18T06:11:08.471Z,77.96
2018-08-18T06:13:36.007Z,78.41
2018-08-18T06:16:08.154Z,78.01
2018-08-18T06:18:37.273Z,78.22
2018-08-18T06:21:05.532Z,77.74
2018-08-18T06:23:33.128Z,77.18
2018-08-18T06:26:01.901Z,75.83
2018-08-18T06:28:29.495Z,75.55
2018-08-18T06:30:57.068Z,75.20
2018-08-18T06:33:24.644Z,75.05
2018-08-18T06:35:52.223Z,75.14
2018-08-18T06:38:19.799Z,74.88
2018-08-18T06:40:49.991Z,74.10
2018-08-18T06:43:17.530Z,74.90
2018-08-18T06:45:45.103Z,75.25
2018-08-18T06:48:18.286Z,74.25
2018-08-18T06:50:46.626Z,74.05
2018-08-18T06:53:14.177Z,73.90
2018-08-18T06:55:41.734Z,73.95
2018-08-18T06:58:09.373Z,73.05
2018-08-18T07:00:36.922Z,72.25
2018-08-18T07:03:10.196Z,72.51
2018-08-18T07:05:37.728Z,71.20
2018-08-18T07:08:05.562Z,72.18
2018-08-18T07:10:34.455Z,71.66
2018-08-18T07:13:03.382Z,72.50
2018-08-18T07:15:33.056Z,72.59
2018-08-18T07:18:00.703Z,72.30
2018-08-18T07:20:28.235Z,71.52
2018-08-18T07:22:55.794Z,72.15
2018-08-18T07:25:23.465Z,71.86
2018-08-18T07:27:58.948Z,72.26
2018-08-18T07:30:28.554Z,72.08
2018-08-18T07:32:56.843Z,72.26
2018-08-18T07:35:24.527Z,72.72
2018-08-18T07:37:52.476Z,71.84
2018-08-18T07:40:44.241Z,71.42
2018-08-18T07:43:13.449Z,71.46
2018-08-18T07:45:41.115Z,70.95
2018-08-18T07:48:08.755Z,71.40
2018-08-18T07:50:36.690Z,70.75
2018-08-18T07:53:04.301Z,70.94
2018-08-18T07:55:32.059Z,70.25
2018-08-18T07:58:01.074Z,70.27
2018-08-18T08:00:30.189Z,69.15
2018-08-18T08:02:57.945Z,67.67
2018-08-18T08:05:25.538Z,66.85
2018-08-18T08:07:53.063Z,66.28
2018-08-18T08:10:20.722Z,66.50
2018-08-18T08:12:48.394Z,66.05
2018-08-18T08:15:16.259Z,66.34
2018-08-18T08:17:44.822Z,66.94
2018-08-18T08:20:12.498Z,66.66
2018-08-18T08:22:40.200Z,65.66
2018-08-18T08:25:08.454Z,65.22
2018-08-18T08:27:36.037Z,65.44
2018-08-18T08:30:04.126Z,65.35
2018-08-18T08:32:31.654Z,64.64
2018-08-18T08:35:00.995Z,64.21
2018-08-18T08:37:28.638Z,63.44
2018-08-18T08:39:56.533Z,62.43
2018-08-18T08:42:24.092Z,61.89
2018-08-18T08:44:53.694Z,60.37
2018-08-18T08:47:21.243Z,59.95
2018-08-18T08:49:49.012Z,57.93
2018-08-18T08:52:16.598Z,56.66
2018-08-18T08:54:44.158Z,55.94
2018-08-18T08:57:11.706Z,55.21
2018-08-18T08:59:40.273Z,56.11
2018-08-18T09:02:09.377Z,57.75
2018-08-18T09:04:36.939Z,57.82
2018-08-18T09:07:05.368Z,58.02
2018-08-18T09:09:32.925Z,58.52
2018-08-18T09:12:01.019Z,58.29
2018-08-18T09:14:28.602Z,59.08
2018-08-18T09:16:56.402Z,59.42
2018-08-18T09:19:24.904Z,58.81
2018-08-18T09:21:53.718Z,57.30
2018-08-18T09:24:24.583Z,55.19
2018-08-18T09:26:54.034Z,54.44
2018-08-18T09:29:22.042Z,53.20
2018-08-18T09:31:49.620Z,51.45
2018-08-18T09:34:17.202Z,50.62
2018-08-18T09:36:45.921Z,50.65
2018-08-18T09:39:19.536Z,50.23
2018-08-18T09:41:47.139Z,51.52
2018-08-18T09:44:21.051Z,51.63
2018-08-18T09:46:49.967Z,52.68
2018-08-18T09:49:17.528Z,53.71
2018-08-18T09:51:45.090Z,53.36
2018-08-18T09:54:12.713Z,53.68
2018-08-18T09:56:40.552Z,52.43
2018-08-18T09:59:08.129Z,52.64
2018-08-18T10:01:35.777Z,50.01
2018-08-18T10:04:03.347Z,47.67
2018-08-18T10:06:31.278Z,45.00
2018-08-18T10:08:58.842Z,43.40
2018-08-18T10:11:26.543Z,43.66
2018-08-18T10:13:54.105Z,43.52
2018-08-18T10:16:21.941Z,45.60
2018-08-18T10:18:49.530Z,45.69
2018-08-18T10:21:17.103Z,45.63
2018-08-18T10:23:44.684Z,45.85
2018-08-18T10:26:12.322Z,45.96
2018-08-18T10:28:40.686Z,45.01
2018-08-18T10:31:08.643Z,43.38
2018-08-18T10:33:36.235Z,43.27
2018-08-18T10:36:03.923Z,42.92
2018-08-18T10:38:31.796Z,42.05
2018-08-18T10:41:01.625Z,42.93
2018-08-18T10:43:29.244Z,43.71
2018-08-18T10:45:56.811Z,43.93
2018-08-18T10:48:24.794Z,43.85
2018-08-18T10:51:25.351Z,43.60
2018-08-18T10:53:53.761Z,42.88
2018-08-18T10:56:21.696Z,42.32
2018-08-18T10:58:59.488Z,42.21
2018-08-18T11:01:27.115Z,40.33
2018-08-18T11:03:54.834Z,41.60
2018-08-18T11:06:26.868Z,39.44
2018-08-18T11:08:55.006Z,41.14
2018-08-18T11:11:22.574Z,40.47
2018-08-18T11:13:50.087Z,41.23
2018-08-18T11:16:17.630Z,41.78
2018-08-18T11:18:45.215Z,41.22
2018-08-18T11:21:12.813Z,42.60
2018-08-18T11:23:40.352Z,40.91
2018-08-18T11:26:07.895Z,41.15
2018-08-18T11:28:36.135Z,42.57
2018-08-18T11:31:03.689Z,43.10
2018-08-18T11:33:40.726Z,43.01
2018-08-18T11:36:09.311Z,42.73
2018-08-18T11:38:36.871Z,43.11
2018-08-18T11:41:04.478Z,42.02
2018-08-18T11:43:33.381Z,40.75
2018-08-18T11:46:01.321Z,39.37
2018-08-18T11:48:28.871Z,39.75
2018-08-18T11:50:56.798Z,39.74
2018-08-18T11:53:24.386Z,40.97
2018-08-18T11:55:51.959Z,42.44
2018-08-18T11:58:22.328Z,42.27
2018-08-18T12:00:52.323Z,42.75
2018-08-18T12:03:21.494Z,43.25
2018-08-18T12:05:53.083Z,42.75
2018-08-18T12:08:22.194Z,42.47
2018-08-18T12:10:50.885Z,41.31
2018-08-18T12:13:26.658Z,41.19
2018-08-18T12:16:00.207Z,41.20
2018-08-18T12:18:29.129Z,41.93
2018-08-18T12:20:57.899Z,43.13
2018-08-18T12:23:25.613Z,42.89
2018-08-18T12:25:58.946Z,42.45
2018-08-18T12:28:31.494Z,43.44
2018-08-18T12:30:59.111Z,43.48
2018-08-18T12:33:26.962Z,43.85
2018-08-18T12:35:54.500Z,43.78
2018-08-18T12:38:22.058Z,42.84
2018-08-18T12:40:49.581Z,43.14
2018-08-18T12:43:21.708Z,43.08
2018-08-18T12:45:53.808Z,43.11
2018-08-18T12:48:22.291Z,43.43
2018-08-18T12:50:49.853Z,44.01
2018-08-18T12:53:17.410Z,43.05
2018-08-18T12:55:49.622Z,43.00
2018-08-18T12:58:17.214Z,41.71
2018-08-18T13:00:44.747Z,43.00
2018-08-18T13:03:12.308Z,42.90
2018-08-18T13:05:39.861Z,43.70
2018-08-18T13:08:07.518Z,44.64
2018-08-18T13:10:35.050Z,44.19
2018-08-18T13:13:02.873Z,43.56
2018-08-18T13:15:30.420Z,44.01
2018-08-18T13:17:58.014Z,43.80
2018-08-18T13:20:26.439Z,43.70
2018-08-18T13:22:54.085Z,43.20
2018-08-18T13:25:21.713Z,42.82
2018-08-18T13:27:58.166Z,43.08
2018-08-18T13:30:26.886Z,41.89
2018-08-18T13:32:55.003Z,42.65
2018-08-18T13:35:22.585Z,42.12
2018-08-18T13:37:50.174Z,43.44
2018-08-18T13:40:17.827Z,43.05
2018-08-18T13:42:45.978Z,42.65
2018-08-18T13:45:13.916Z,42.72
2018-08-18T13:47:42.380Z,42.14
2018-08-18T13:50:13.654Z,42.02
2018-08-18T13:52:48.200Z,41.94
2018-08-18T13:55:15.768Z,43.08
2018-08-18T13:57:43.601Z,42.43
2018-08-18T14:00:13.184Z,43.32
2018-08-18T14:02:41.440Z,43.81
2018-08-18T14:05:09.883Z,43.52
2018-08-18T14:07:45.959Z,43.19
2018-08-18T14:10:13.510Z,42.50
2018-08-18T14:12:41.061Z,42.03
2018-08-18T14:15:08.628Z,42.38
2018-08-18T14:17:36.188Z,41.87
2018-08-18T14:20:04.336Z,42.85
2018-08-18T14:22:31.901Z,43.15
2018-08-18T14:24:59.474Z,43.61
2018-08-18T14:27:27.018Z,43.11
2018-08-18T14:29:54.641Z,42.65
2018-08-18T14:32:28.130Z,42.67
2018-08-18T14:35:04.697Z,42.02
2018-08-18T14:37:32.298Z,43.73
2018-08-18T14:39:59.886Z,43.85
2018-08-18T14:42:27.467Z,42.59
2018-08-18T14:44:56.113Z,42.54
2018-08-18T14:47:23.735Z,42.96
2018-08-18T14:49:55.899Z,43.97
2018-08-18T14:52:23.458Z,43.78
2018-08-18T14:54:51.060Z,43.59
2018-08-18T14:57:18.652Z,42.47
2018-08-18T14:59:46.802Z,43.08
2018-08-18T15:02:14.663Z,43.31
2018-08-18T15:04:42.213Z,42.51
2018-08-18T15:07:09.764Z,42.67
2018-08-18T15:09:41.863Z,42.55
2018-08-18T15:12:09.402Z,41.94
2018-08-18T15:14:37.158Z,41.79
2018-08-18T15:17:04.756Z,43.20
2018-08-18T15:19:32.342Z,43.22
2018-08-18T15:22:02.477Z,44.08
2018-08-18T15:24:30.046Z,44.68
2018-08-18T15:26:57.618Z,43.99
2018-08-18T15:29:25.175Z,44.26
2018-08-18T15:31:53.866Z,43.77
2018-08-18T15:34:21.414Z,44.12
2018-08-18T15:36:48.978Z,44.06
2018-08-18T15:39:16.605Z,43.81
2018-08-18T15:41:44.102Z,44.38
2018-08-18T15:44:11.690Z,44.25
2018-08-18T15:46:39.229Z,44.37
2018-08-18T15:49:06.814Z,44.75
2018-08-18T15:51:34.365Z,45.39
2018-08-18T15:54:02.903Z,45.44
2018-08-18T15:56:31.907Z,45.45
2018-08-18T15:59:00.267Z,45.55
2018-08-18T16:01:29.054Z,45.69
2018-08-18T16:03:58.771Z,45.38
2018-08-18T16:06:26.327Z,45.96
2018-08-18T16:08:54.462Z,45.97
2018-08-18T16:11:22.233Z,46.56
2018-08-18T16:13:49.953Z,46.73
2018-08-18T16:16:17.718Z,46.40
2018-08-18T16:18:45.729Z,46.66
2018-08-18T16:21:19.384Z,46.79
2018-08-18T16:23:46.958Z,46.62
2018-08-18T16:26:14.482Z,47.26
2018-08-18T16:28:42.819Z,47.29
2018-08-18T16:31:10.820Z,46.44
2018-08-18T16:33:38.463Z,46.31
2018-08-18T16:36:06.211Z,46.52
2018-08-18T16:38:33.737Z,47.22
2018-08-18T16:41:01.610Z,46.33
2018-08-18T16:43:31.258Z,45.86
2018-08-18T16:46:03.385Z,45.63
2018-08-18T16:48:30.942Z,46.06
2018-08-18T16:50:58.473Z,46.23
2018-08-18T16:53:26.029Z,45.95
2018-08-18T16:55:53.629Z,46.41
2018-08-18T16:58:21.178Z,46.63
2018-08-18T17:00:57.269Z,45.87
2018-08-18T17:03:31.278Z,45.98
2018-08-18T17:05:59.504Z,46.05
2018-08-18T17:08:27.244Z,46.45
2018-08-18T17:10:54.791Z,47.05
2018-08-18T17:13:22.706Z,47.51
2018-08-18T17:15:50.538Z,47.89
2018-08-18T17:18:18.094Z,47.92
2018-08-18T17:20:53.157Z,48.38
2018-08-18T17:23:20.813Z,47.82
2018-08-18T17:25:48.374Z,48.34
2018-08-18T17:28:15.922Z,48.44
2018-08-18T17:30:44.349Z,48.53
2018-08-18T17:33:12.998Z,48.92
2018-08-18T17:35:40.541Z,48.95
2018-08-18T17:38:08.099Z,49.51
2018-08-18T17:40:35.664Z,48.23
2018-08-18T17:43:03.222Z,49.05
2018-08-18T17:45:33.807Z,49.23
2018-08-18T17:48:01.956Z,49.53
2018-08-18T17:50:29.502Z,50.22
2018-08-18T17:52:57.059Z,50.44
2018-08-18T17:55:24.683Z,50.22
2018-08-18T17:57:52.236Z,50.59
2018-08-18T18:00:21.750Z,50.57
2018-08-18T18:02:55.202Z,50.76
2018-08-18T18:05:25.621Z,51.22
2018-08-18T18:07:54.779Z,51.35
2018-08-18T18:10:24.171Z,51.23
2018-08-18T18:12:52.494Z,51.31
2018-08-18T18:15:40.295Z,51.76
2018-08-18T18:18:08.695Z,51.58
2018-08-18T18:20:37.288Z,51.76
2018-08-18T18:23:07.533Z,51.74
2018-08-18T18:25:35.091Z,52.23
2018-08-18T18:28:03.007Z,51.85
2018-08-18T18:30:30.572Z,52.24
2018-08-18T18:32:58.734Z,52.39
2018-08-18T18:35:26.715Z,52.97
2018-08-18T18:37:56.421Z,53.20
2018-08-18T18:40:24.687Z,53.54
2018-08-18T18:42:52.453Z,53.28
2018-08-18T18:45:21.442Z,53.28
2018-08-18T18:47:49.083Z,53.84
2018-08-18T18:50:17.679Z,53.80
2018-08-18T18:52:45.667Z,54.13
2018-08-18T18:55:14.254Z,54.09
2018-08-18T18:57:47.493Z,53.98
2018-08-18T19:00:15.075Z,53.85
2018-08-18T19:02:43.149Z,54.03
2018-08-18T19:05:17.798Z,54.33
2018-08-18T19:07:47.155Z,54.92
2018-08-18T19:10:14.743Z,54.89
2018-08-18T19:12:42.253Z,54.49
2018-08-18T19:15:09.822Z,55.00
2018-08-18T19:17:37.402Z,55.11
2018-08-18T19:20:14.610Z,55.06
2018-08-18T19:22:42.327Z,55.17
2018-08-18T19:25:09.877Z,55.50
2018-08-18T19:27:37.422Z,55.74
2018-08-18T19:30:05.288Z,56.32
2018-08-18T19:32:32.886Z,56.26
2018-08-18T19:35:00.707Z,56.13
2018-08-18T19:37:28.762Z,56.84
2018-08-18T19:39:56.299Z,56.65
2018-08-18T19:42:23.878Z,56.92
2018-08-18T19:44:52.215Z,57.26
2018-08-18T19:47:29.174Z,57.11
2018-08-18T19:49:56.697Z,57.08
2018-08-18T19:52:24.256Z,56.78
2018-08-18T19:54:52.306Z,56.72
2018-08-18T19:57:26.067Z,56.90
2018-08-18T19:59:57.058Z,57.06
2018-08-18T20:02:24.744Z,56.93
2018-08-18T20:04:52.351Z,56.85
2018-08-18T20:07:20.251Z,57.09
2018-08-18T20:09:47.906Z,57.75
2018-08-18T20:12:15.455Z,57.92
2018-08-18T20:14:43.005Z,58.26
2018-08-18T20:17:10.595Z,57.67
2018-08-18T20:19:38.228Z,57.86
2018-08-18T20:22:07.191Z,58.26
2018-08-18T20:24:34.763Z,58.85
2018-08-18T20:27:02.350Z,58.94
2018-08-18T20:29:29.877Z,59.19
2018-08-18T20:31:59.054Z,59.38
2018-08-18T20:34:26.671Z,59.32
2018-08-18T20:36:54.190Z,59.33
2018-08-18T20:39:21.776Z,58.97
2018-08-18T20:41:49.774Z,58.79
2018-08-18T20:44:17.321Z,58.76
2018-08-18T20:46:44.867Z,59.46
2018-08-18T20:49:12.448Z,59.12
2018-08-18T20:51:39.994Z,59.68
2018-08-18T20:54:07.550Z,59.74
2018-08-18T20:56:35.202Z,59.40
2018-08-18T20:59:02.856Z,59.72
2018-08-18T21:01:30.394Z,60.47
2018-08-18T21:03:57.931Z,60.36
2018-08-18T21:06:25.534Z,60.88
2018-08-18T21:08:53.111Z,61.33
2018-08-18T21:11:20.687Z,61.37
2018-08-18T21:13:49.633Z,61.93
2018-08-18T21:16:17.794Z,62.18
2018-08-18T21:18:45.391Z,61.74
2018-08-18T21:21:23.003Z,61.89
2018-08-18T21:23:50.983Z,62.10
2018-08-18T21:26:18.567Z,61.85
2018-08-18T21:28:46.070Z,62.03
2018-08-18T21:31:16.359Z,61.97
2018-08-18T21:33:43.958Z,61.94
2018-08-18T21:36:11.514Z,62.21
2018-08-18T21:38:39.099Z,62.22
2018-08-18T21:41:06.650Z,61.79
2018-08-18T21:43:34.251Z,61.94
2018-08-18T21:46:01.832Z,62.20
2018-08-18T21:48:51.642Z,61.38
2018-08-18T21:51:21.692Z,62.26
2018-08-18T21:53:49.266Z,63.35
2018-08-18T21:56:17.117Z,62.65
2018-08-18T21:58:44.667Z,63.12
2018-08-18T22:01:17.790Z,63.91
2018-08-18T22:03:45.914Z,63.32
2018-08-18T22:06:13.734Z,63.91
2018-08-18T22:08:41.375Z,63.77
2018-08-18T22:11:12.095Z,63.37
2018-08-18T22:13:45.359Z,63.02
2018-08-18T22:16:12.906Z,63.35
2018-08-18T22:18:43.351Z,63.38
2018-08-18T22:21:15.685Z,63.52
2018-08-18T22:23:43.217Z,63.80
2018-08-18T22:26:19.642Z,64.46
2018-08-18T22:28:48.569Z,64.17
2018-08-18T22:31:16.115Z,64.13
2018-08-18T22:33:43.954Z,63.95
2018-08-18T22:36:11.486Z,63.82
2018-08-18T22:38:39.016Z,63.58
2018-08-18T22:41:06.950Z,64.17
2018-08-18T22:43:35.017Z,64.45
2018-08-18T22:46:02.690Z,64.00
2018-08-18T22:48:31.006Z,62.91
2018-08-18T22:50:58.534Z,63.00
2018-08-18T22:53:26.123Z,63.81
2018-08-18T22:55:53.685Z,63.13
2018-08-18T22:58:21.236Z,63.70
2018-08-18T23:00:53.346Z,63.51
2018-08-18T23:03:20.866Z,63.40
2018-08-18T23:05:48.488Z,63.76
2018-08-18T23:08:17.822Z,63.08
2018-08-18T23:10:45.679Z,63.38
2018-08-18T23:13:13.221Z,63.16
2018-08-18T23:15:40.827Z,63.08
2018-08-18T23:18:08.408Z,62.78
2018-08-18T23:20:36.164Z,62.69
2018-08-18T23:23:03.693Z,63.52
2018-08-18T23:25:32.617Z,62.97
2018-08-18T23:28:00.973Z,62.84
2018-08-18T23:30:38.670Z,63.02
2018-08-18T23:33:07.126Z,63.68
2018-08-18T23:35:34.756Z,63.71
2018-08-18T23:38:02.582Z,62.62
2018-08-18T23:40:30.231Z,61.70
2018-08-18T23:42:57.880Z,61.89
2018-08-18T23:45:33.323Z,62.57
2018-08-18T23:48:08.357Z,62.77
2018-08-18T23:50:36.531Z,62.98
2018-08-18T23:53:05.301Z,63.36
2018-08-18T23:55:32.866Z,63.91
2018-08-18T23:58:00.854Z,64.34
